Philadelphia, Mississippi
Current Conditions -  °F | °C
As of 1:56 AM on Monday 26 Jan 2015 (Local Time) from KNMM Reporting Station
Overcast Overcast  
Wind Chill: 39°   Ceiling: 3800
Heat Index: 47°   Visibility: 10mi
Dew Point: 32°   Wind: 24mph
Humidity: 56%   Direction: 310°NW
Pressure: 29.95"   Gusts: 39mph
Location:  32.77°N, 89.12°W
Report Text: KNMM 260756Z AUTO 31021G34KT 10SM OVC038 08/00 A2995 RMK AO2 PK WND 31034/0747 SLP153 T00830000 $
Loading
Personal Weather Stations






























Interactive Weather Map New forecast layout! Learn more

10-Day Weather Forecast

Advertisements
Track Severe Weather on mobile